sensor_id;sensor_type;location;lat;lon;timestamp;P1;durP1;ratioP1;P2;durP2;ratioP2
14141;SDS011;7151;52.246;4.820;2022-11-13T00:00:50;5.70;;;4.57;;
14141;SDS011;7151;52.246;4.820;2022-11-13T00:03:15;7.77;;;4.33;;
14141;SDS011;7151;52.246;4.820;2022-11-13T00:05:41;6.67;;;4.67;;
14141;SDS011;7151;52.246;4.820;2022-11-13T00:08:06;7.57;;;5.20;;
14141;SDS011;7151;52.246;4.820;2022-11-13T00:10:32;5.53;;;4.67;;
14141;SDS011;7151;52.246;4.820;2022-11-13T00:12:58;7.70;;;5.20;;
14141;SDS011;7151;52.246;4.820;2022-11-13T00:15:23;9.27;;;5.23;;
14141;SDS011;7151;52.246;4.820;2022-11-13T00:17:49;5.97;;;4.40;;
14141;SDS011;7151;52.246;4.820;2022-11-13T00:20:15;6.37;;;5.30;;
14141;SDS011;7151;52.246;4.820;2022-11-13T00:22:41;8.93;;;4.63;;
14141;SDS011;7151;52.246;4.820;2022-11-13T00:25:07;6.40;;;5.03;;
14141;SDS011;7151;52.246;4.820;2022-11-13T00:27:33;5.53;;;4.23;;
14141;SDS011;7151;52.246;4.820;2022-11-13T00:29:59;7.20;;;4.43;;
14141;SDS011;7151;52.246;4.820;2022-11-13T00:32:24;5.70;;;4.53;;
14141;SDS011;7151;52.246;4.820;2022-11-13T00:34:53;5.97;;;4.67;;
14141;SDS011;7151;52.246;4.820;2022-11-13T00:37:18;5.43;;;4.77;;
14141;SDS011;7151;52.246;4.820;2022-11-13T00:39:44;5.93;;;4.63;;
14141;SDS011;7151;52.246;4.820;2022-11-13T00:42:09;6.50;;;5.27;;
14141;SDS011;7151;52.246;4.820;2022-11-13T00:44:35;6.37;;;4.70;;
14141;SDS011;7151;52.246;4.820;2022-11-13T00:47:00;11.23;;;5.63;;
14141;SDS011;7151;52.246;4.820;2022-11-13T00:49:26;5.63;;;4.80;;
14141;SDS011;7151;52.246;4.820;2022-11-13T00:51:51;6.17;;;4.27;;
14141;SDS011;7151;52.246;4.820;2022-11-13T00:54:17;7.27;;;4.90;;
14141;SDS011;7151;52.246;4.820;2022-11-13T00:56:43;7.23;;;5.10;;
14141;SDS011;7151;52.246;4.820;2022-11-13T00:59:08;5.93;;;4.80;;
14141;SDS011;7151;52.246;4.820;2022-11-13T01:01:34;5.73;;;4.37;;
14141;SDS011;7151;52.246;4.820;2022-11-13T01:03:59;5.37;;;4.87;;
14141;SDS011;7151;52.246;4.820;2022-11-13T01:06:26;5.10;;;4.60;;
14141;SDS011;7151;52.246;4.820;2022-11-13T01:08:55;5.43;;;4.87;;
14141;SDS011;7151;52.246;4.820;2022-11-13T01:11:25;7.27;;;4.70;;
14141;SDS011;7151;52.246;4.820;2022-11-13T01:13:52;7.87;;;5.57;;
14141;SDS011;7151;52.246;4.820;2022-11-13T01:16:20;7.60;;;6.00;;
14141;SDS011;7151;52.246;4.820;2022-11-13T01:18:48;6.17;;;4.53;;
14141;SDS011;7151;52.246;4.820;2022-11-13T01:21:15;5.70;;;5.03;;
14141;SDS011;7151;52.246;4.820;2022-11-13T01:23:45;5.73;;;4.83;;
14141;SDS011;7151;52.246;4.820;2022-11-13T01:26:12;6.30;;;4.97;;
14141;SDS011;7151;52.246;4.820;2022-11-13T01:28:41;5.83;;;4.73;;
14141;SDS011;7151;52.246;4.820;2022-11-13T01:31:08;7.90;;;5.17;;
14141;SDS011;7151;52.246;4.820;2022-11-13T01:33:40;5.70;;;5.10;;
14141;SDS011;7151;52.246;4.820;2022-11-13T01:36:07;9.17;;;5.13;;
14141;SDS011;7151;52.246;4.820;2022-11-13T01:38:35;5.77;;;4.83;;
14141;SDS011;7151;52.246;4.820;2022-11-13T01:41:01;5.87;;;5.03;;
14141;SDS011;7151;52.246;4.820;2022-11-13T01:43:34;8.90;;;5.20;;
14141;SDS011;7151;52.246;4.820;2022-11-13T01:46:05;6.63;;;5.30;;
14141;SDS011;7151;52.246;4.820;2022-11-13T01:48:55;7.47;;;5.63;;
14141;SDS011;7151;52.246;4.820;2022-11-13T01:51:29;5.57;;;4.67;;
14141;SDS011;7151;52.246;4.820;2022-11-13T01:53:58;9.20;;;5.80;;
14141;SDS011;7151;52.246;4.820;2022-11-13T01:56:27;7.73;;;6.20;;
14141;SDS011;7151;52.246;4.820;2022-11-13T01:58:57;9.07;;;6.73;;
14141;SDS011;7151;52.246;4.820;2022-11-13T02:01:31;9.10;;;6.73;;
14141;SDS011;7151;52.246;4.820;2022-11-13T02:03:56;9.33;;;6.57;;
14141;SDS011;7151;52.246;4.820;2022-11-13T02:06:22;11.17;;;6.73;;
14141;SDS011;7151;52.246;4.820;2022-11-13T02:08:49;8.87;;;6.23;;
14141;SDS011;7151;52.246;4.820;2022-11-13T02:11:16;9.50;;;6.00;;
14141;SDS011;7151;52.246;4.820;2022-11-13T02:13:42;8.87;;;6.80;;
14141;SDS011;7151;52.246;4.820;2022-11-13T02:16:08;6.97;;;6.27;;
14141;SDS011;7151;52.246;4.820;2022-11-13T02:18:35;7.43;;;6.63;;
14141;SDS011;7151;52.246;4.820;2022-11-13T02:26:47;9.03;;;5.80;;
14141;SDS011;7151;52.246;4.820;2022-11-13T02:29:15;8.37;;;5.73;;
14141;SDS011;7151;52.246;4.820;2022-11-13T02:31:40;9.17;;;6.23;;
14141;SDS011;7151;52.246;4.820;2022-11-13T02:34:06;7.07;;;5.13;;
14141;SDS011;7151;52.246;4.820;2022-11-13T02:36:31;9.40;;;5.73;;
14141;SDS011;7151;52.246;4.820;2022-11-13T02:38:58;7.43;;;5.70;;
14141;SDS011;7151;52.246;4.820;2022-11-13T02:41:27;6.97;;;5.80;;
14141;SDS011;7151;52.246;4.820;2022-11-13T02:43:53;8.87;;;6.23;;
14141;SDS011;7151;52.246;4.820;2022-11-13T02:46:18;7.63;;;5.60;;
14141;SDS011;7151;52.246;4.820;2022-11-13T02:48:44;9.70;;;6.70;;
14141;SDS011;7151;52.246;4.820;2022-11-13T02:51:09;11.47;;;6.60;;
14141;SDS011;7151;52.246;4.820;2022-11-13T02:53:35;10.57;;;7.37;;
14141;SDS011;7151;52.246;4.820;2022-11-13T02:56:00;10.60;;;6.93;;
14141;SDS011;7151;52.246;4.820;2022-11-13T02:58:26;8.40;;;6.83;;
14141;SDS011;7151;52.246;4.820;2022-11-13T03:00:51;8.80;;;6.50;;
14141;SDS011;7151;52.246;4.820;2022-11-13T03:03:17;7.37;;;5.60;;
14141;SDS011;7151;52.246;4.820;2022-11-13T03:05:46;8.47;;;6.00;;
14141;SDS011;7151;52.246;4.820;2022-11-13T03:08:12;7.83;;;6.03;;
14141;SDS011;7151;52.246;4.820;2022-11-13T03:10:38;7.43;;;5.23;;
14141;SDS011;7151;52.246;4.820;2022-11-13T03:13:04;8.33;;;5.47;;
14141;SDS011;7151;52.246;4.820;2022-11-13T03:15:29;8.33;;;5.83;;
14141;SDS011;7151;52.246;4.820;2022-11-13T03:17:55;7.57;;;5.37;;
14141;SDS011;7151;52.246;4.820;2022-11-13T03:20:20;8.07;;;5.70;;
14141;SDS011;7151;52.246;4.820;2022-11-13T03:22:46;8.77;;;5.17;;
14141;SDS011;7151;52.246;4.820;2022-11-13T03:25:12;8.87;;;5.27;;
14141;SDS011;7151;52.246;4.820;2022-11-13T03:27:37;6.33;;;4.50;;
14141;SDS011;7151;52.246;4.820;2022-11-13T03:30:03;8.70;;;5.50;;
14141;SDS011;7151;52.246;4.820;2022-11-13T03:32:29;7.70;;;4.57;;
14141;SDS011;7151;52.246;4.820;2022-11-13T03:34:55;6.97;;;4.73;;
14141;SDS011;7151;52.246;4.820;2022-11-13T03:37:20;7.60;;;5.33;;
14141;SDS011;7151;52.246;4.820;2022-11-13T03:39:46;6.90;;;4.87;;
14141;SDS011;7151;52.246;4.820;2022-11-13T03:42:11;7.97;;;5.43;;
14141;SDS011;7151;52.246;4.820;2022-11-13T03:44:37;8.70;;;5.03;;
14141;SDS011;7151;52.246;4.820;2022-11-13T03:47:03;7.77;;;5.07;;
14141;SDS011;7151;52.246;4.820;2022-11-13T03:49:28;8.40;;;4.70;;
14141;SDS011;7151;52.246;4.820;2022-11-13T03:51:54;8.37;;;4.67;;
14141;SDS011;7151;52.246;4.820;2022-11-13T03:54:19;6.23;;;4.67;;
14141;SDS011;7151;52.246;4.820;2022-11-13T03:56:45;6.77;;;4.87;;
14141;SDS011;7151;52.246;4.820;2022-11-13T03:59:10;8.27;;;4.47;;
14141;SDS011;7151;52.246;4.820;2022-11-13T04:01:36;6.93;;;4.00;;
14141;SDS011;7151;52.246;4.820;2022-11-13T04:04:01;8.30;;;4.50;;
14141;SDS011;7151;52.246;4.820;2022-11-13T04:06:27;5.10;;;4.17;;
14141;SDS011;7151;52.246;4.820;2022-11-13T04:08:52;6.43;;;4.30;;
14141;SDS011;7151;52.246;4.820;2022-11-13T04:11:18;6.37;;;4.67;;
14141;SDS011;7151;52.246;4.820;2022-11-13T04:13:43;7.33;;;4.37;;
14141;SDS011;7151;52.246;4.820;2022-11-13T04:16:09;10.07;;;3.93;;
14141;SDS011;7151;52.246;4.820;2022-11-13T04:18:35;6.33;;;4.33;;
14141;SDS011;7151;52.246;4.820;2022-11-13T04:21:01;5.23;;;4.03;;
14141;SDS011;7151;52.246;4.820;2022-11-13T04:23:28;5.43;;;4.30;;
14141;SDS011;7151;52.246;4.820;2022-11-13T04:25:53;5.07;;;4.53;;
14141;SDS011;7151;52.246;4.820;2022-11-13T04:28:19;5.90;;;4.13;;
14141;SDS011;7151;52.246;4.820;2022-11-13T04:30:45;6.90;;;4.93;;
14141;SDS011;7151;52.246;4.820;2022-11-13T04:33:10;5.53;;;4.67;;
14141;SDS011;7151;52.246;4.820;2022-11-13T04:35:36;6.47;;;4.10;;
14141;SDS011;7151;52.246;4.820;2022-11-13T04:38:02;5.07;;;4.20;;
14141;SDS011;7151;52.246;4.820;2022-11-13T04:40:27;5.10;;;4.27;;
14141;SDS011;7151;52.246;4.820;2022-11-13T04:42:53;6.93;;;4.63;;
14141;SDS011;7151;52.246;4.820;2022-11-13T04:45:20;5.93;;;4.43;;
14141;SDS011;7151;52.246;4.820;2022-11-13T04:47:47;7.30;;;4.10;;
14141;SDS011;7151;52.246;4.820;2022-11-13T04:50:14;9.40;;;4.30;;
14141;SDS011;7151;52.246;4.820;2022-11-13T04:52:40;7.60;;;5.37;;
14141;SDS011;7151;52.246;4.820;2022-11-13T04:55:07;4.47;;;3.97;;
14141;SDS011;7151;52.246;4.820;2022-11-13T04:57:33;5.67;;;4.27;;
14141;SDS011;7151;52.246;4.820;2022-11-13T04:59:59;6.17;;;4.23;;
14141;SDS011;7151;52.246;4.820;2022-11-13T05:02:26;6.53;;;4.30;;
14141;SDS011;7151;52.246;4.820;2022-11-13T05:04:51;5.67;;;3.47;;
14141;SDS011;7151;52.246;4.820;2022-11-13T05:07:17;5.73;;;3.90;;
14141;SDS011;7151;52.246;4.820;2022-11-13T05:09:43;4.90;;;3.80;;
14141;SDS011;7151;52.246;4.820;2022-11-13T05:12:09;5.43;;;4.10;;
14141;SDS011;7151;52.246;4.820;2022-11-13T05:14:35;6.53;;;3.77;;
14141;SDS011;7151;52.246;4.820;2022-11-13T05:17:04;4.07;;;3.23;;
14141;SDS011;7151;52.246;4.820;2022-11-13T05:19:31;7.30;;;4.23;;
14141;SDS011;7151;52.246;4.820;2022-11-13T05:21:57;5.70;;;3.90;;
14141;SDS011;7151;52.246;4.820;2022-11-13T05:24:23;6.07;;;3.83;;
14141;SDS011;7151;52.246;4.820;2022-11-13T05:26:49;6.00;;;3.83;;
14141;SDS011;7151;52.246;4.820;2022-11-13T05:29:15;8.33;;;4.07;;
14141;SDS011;7151;52.246;4.820;2022-11-13T05:31:40;4.23;;;3.80;;
14141;SDS011;7151;52.246;4.820;2022-11-13T05:34:06;6.03;;;3.77;;
14141;SDS011;7151;52.246;4.820;2022-11-13T05:36:32;6.43;;;4.00;;
14141;SDS011;7151;52.246;4.820;2022-11-13T05:38:58;4.93;;;4.33;;
14141;SDS011;7151;52.246;4.820;2022-11-13T05:41:23;4.17;;;3.57;;
14141;SDS011;7151;52.246;4.820;2022-11-13T05:43:50;4.67;;;3.83;;
14141;SDS011;7151;52.246;4.820;2022-11-13T05:46:16;5.83;;;4.40;;
14141;SDS011;7151;52.246;4.820;2022-11-13T05:48:44;6.63;;;3.87;;
14141;SDS011;7151;52.246;4.820;2022-11-13T05:51:15;5.20;;;4.27;;
14141;SDS011;7151;52.246;4.820;2022-11-13T05:53:42;4.83;;;3.67;;
14141;SDS011;7151;52.246;4.820;2022-11-13T05:56:09;5.40;;;3.93;;
14141;SDS011;7151;52.246;4.820;2022-11-13T05:58:35;6.57;;;4.10;;
14141;SDS011;7151;52.246;4.820;2022-11-13T06:01:05;5.97;;;4.07;;
14141;SDS011;7151;52.246;4.820;2022-11-13T06:03:45;5.90;;;3.90;;
14141;SDS011;7151;52.246;4.820;2022-11-13T06:06:12;5.53;;;4.40;;
14141;SDS011;7151;52.246;4.820;2022-11-13T06:08:39;5.80;;;4.67;;
14141;SDS011;7151;52.246;4.820;2022-11-13T06:11:06;5.20;;;4.27;;
14141;SDS011;7151;52.246;4.820;2022-11-13T06:13:33;5.93;;;4.63;;
14141;SDS011;7151;52.246;4.820;2022-11-13T06:16:03;6.10;;;4.27;;
14141;SDS011;7151;52.246;4.820;2022-11-13T06:18:30;5.43;;;4.37;;
14141;SDS011;7151;52.246;4.820;2022-11-13T06:21:03;5.67;;;4.63;;
14141;SDS011;7151;52.246;4.820;2022-11-13T06:23:31;5.60;;;4.57;;
14141;SDS011;7151;52.246;4.820;2022-11-13T06:26:11;4.97;;;4.07;;
14141;SDS011;7151;52.246;4.820;2022-11-13T06:28:38;5.27;;;4.47;;
14141;SDS011;7151;52.246;4.820;2022-11-13T06:31:08;7.07;;;4.63;;
14141;SDS011;7151;52.246;4.820;2022-11-13T06:33:34;5.27;;;4.77;;
14141;SDS011;7151;52.246;4.820;2022-11-13T06:36:02;7.20;;;4.83;;
14141;SDS011;7151;52.246;4.820;2022-11-13T06:38:38;6.20;;;3.60;;
14141;SDS011;7151;52.246;4.820;2022-11-13T06:41:04;7.30;;;4.20;;
14141;SDS011;7151;52.246;4.820;2022-11-13T06:43:31;4.30;;;3.67;;
14141;SDS011;7151;52.246;4.820;2022-11-13T06:45:57;7.70;;;4.47;;
14141;SDS011;7151;52.246;4.820;2022-11-13T06:48:26;8.03;;;4.87;;
14141;SDS011;7151;52.246;4.820;2022-11-13T06:50:52;5.07;;;4.10;;
14141;SDS011;7151;52.246;4.820;2022-11-13T06:53:18;5.77;;;3.73;;
14141;SDS011;7151;52.246;4.820;2022-11-13T06:55:44;6.97;;;4.07;;
14141;SDS011;7151;52.246;4.820;2022-11-13T06:58:12;5.00;;;3.40;;
14141;SDS011;7151;52.246;4.820;2022-11-13T07:00:38;5.37;;;3.57;;
14141;SDS011;7151;52.246;4.820;2022-11-13T07:03:04;7.77;;;3.70;;
14141;SDS011;7151;52.246;4.820;2022-11-13T07:05:30;5.43;;;3.73;;
14141;SDS011;7151;52.246;4.820;2022-11-13T07:07:55;6.77;;;3.67;;
14141;SDS011;7151;52.246;4.820;2022-11-13T07:10:21;6.53;;;3.73;;
14141;SDS011;7151;52.246;4.820;2022-11-13T07:12:46;3.37;;;3.07;;
14141;SDS011;7151;52.246;4.820;2022-11-13T07:15:12;4.53;;;3.50;;
14141;SDS011;7151;52.246;4.820;2022-11-13T07:17:40;7.73;;;3.97;;
14141;SDS011;7151;52.246;4.820;2022-11-13T07:20:06;4.20;;;2.93;;
14141;SDS011;7151;52.246;4.820;2022-11-13T07:22:32;3.33;;;3.03;;
14141;SDS011;7151;52.246;4.820;2022-11-13T07:24:57;5.40;;;3.43;;
14141;SDS011;7151;52.246;4.820;2022-11-13T07:27:23;5.53;;;3.70;;
14141;SDS011;7151;52.246;4.820;2022-11-13T07:29:48;5.27;;;3.43;;
14141;SDS011;7151;52.246;4.820;2022-11-13T07:32:14;4.67;;;2.87;;
14141;SDS011;7151;52.246;4.820;2022-11-13T07:34:40;5.57;;;2.97;;
14141;SDS011;7151;52.246;4.820;2022-11-13T07:37:05;4.77;;;3.83;;
14141;SDS011;7151;52.246;4.820;2022-11-13T07:39:31;4.50;;;3.33;;
14141;SDS011;7151;52.246;4.820;2022-11-13T07:41:56;5.20;;;3.83;;
14141;SDS011;7151;52.246;4.820;2022-11-13T07:44:22;5.57;;;3.87;;
14141;SDS011;7151;52.246;4.820;2022-11-13T07:46:47;6.47;;;3.57;;
14141;SDS011;7151;52.246;4.820;2022-11-13T07:49:13;5.97;;;3.17;;
14141;SDS011;7151;52.246;4.820;2022-11-13T07:51:38;3.87;;;3.07;;
14141;SDS011;7151;52.246;4.820;2022-11-13T07:54:04;4.00;;;3.60;;
14141;SDS011;7151;52.246;4.820;2022-11-13T07:56:30;6.33;;;3.70;;
14141;SDS011;7151;52.246;4.820;2022-11-13T07:58:55;3.70;;;3.03;;
14141;SDS011;7151;52.246;4.820;2022-11-13T08:01:21;5.10;;;3.67;;
14141;SDS011;7151;52.246;4.820;2022-11-13T08:03:46;6.87;;;3.53;;
14141;SDS011;7151;52.246;4.820;2022-11-13T08:06:12;6.60;;;3.90;;
14141;SDS011;7151;52.246;4.820;2022-11-13T08:08:37;5.17;;;3.20;;
14141;SDS011;7151;52.246;4.820;2022-11-13T08:11:06;5.50;;;3.70;;
14141;SDS011;7151;52.246;4.820;2022-11-13T08:13:33;4.30;;;3.60;;
14141;SDS011;7151;52.246;4.820;2022-11-13T08:16:00;5.17;;;3.13;;
14141;SDS011;7151;52.246;4.820;2022-11-13T08:18:30;6.30;;;3.93;;
14141;SDS011;7151;52.246;4.820;2022-11-13T08:20:56;3.63;;;3.27;;
14141;SDS011;7151;52.246;4.820;2022-11-13T08:23:24;5.30;;;3.40;;
14141;SDS011;7151;52.246;4.820;2022-11-13T08:25:50;5.93;;;3.53;;
14141;SDS011;7151;52.246;4.820;2022-11-13T08:28:15;5.27;;;3.87;;
14141;SDS011;7151;52.246;4.820;2022-11-13T08:30:44;6.23;;;3.80;;
14141;SDS011;7151;52.246;4.820;2022-11-13T08:33:10;5.10;;;3.70;;
14141;SDS011;7151;52.246;4.820;2022-11-13T08:35:35;5.10;;;3.43;;
14141;SDS011;7151;52.246;4.820;2022-11-13T08:38:01;6.17;;;4.03;;
14141;SDS011;7151;52.246;4.820;2022-11-13T08:40:28;4.57;;;3.70;;
14141;SDS011;7151;52.246;4.820;2022-11-13T08:43:00;4.80;;;3.77;;
14141;SDS011;7151;52.246;4.820;2022-11-13T08:45:27;6.07;;;3.90;;
14141;SDS011;7151;52.246;4.820;2022-11-13T08:47:53;4.23;;;3.83;;
14141;SDS011;7151;52.246;4.820;2022-11-13T08:50:22;4.93;;;4.03;;
14141;SDS011;7151;52.246;4.820;2022-11-13T08:52:52;4.20;;;3.80;;
14141;SDS011;7151;52.246;4.820;2022-11-13T08:55:19;4.50;;;3.53;;
14141;SDS011;7151;52.246;4.820;2022-11-13T08:57:44;4.30;;;3.67;;
14141;SDS011;7151;52.246;4.820;2022-11-13T09:00:10;4.40;;;3.30;;
14141;SDS011;7151;52.246;4.820;2022-11-13T09:02:36;6.53;;;3.20;;
14141;SDS011;7151;52.246;4.820;2022-11-13T09:05:02;7.20;;;3.67;;
14141;SDS011;7151;52.246;4.820;2022-11-13T09:07:28;5.23;;;3.77;;
14141;SDS011;7151;52.246;4.820;2022-11-13T09:09:53;4.03;;;3.63;;
14141;SDS011;7151;52.246;4.820;2022-11-13T09:12:19;5.53;;;3.83;;
14141;SDS011;7151;52.246;4.820;2022-11-13T09:14:45;5.80;;;4.13;;
14141;SDS011;7151;52.246;4.820;2022-11-13T09:17:11;6.27;;;3.70;;
14141;SDS011;7151;52.246;4.820;2022-11-13T09:19:36;4.90;;;3.47;;
14141;SDS011;7151;52.246;4.820;2022-11-13T09:22:02;3.87;;;3.23;;
14141;SDS011;7151;52.246;4.820;2022-11-13T09:24:28;5.33;;;3.27;;
14141;SDS011;7151;52.246;4.820;2022-11-13T09:26:53;5.03;;;3.37;;
14141;SDS011;7151;52.246;4.820;2022-11-13T09:29:19;4.07;;;3.30;;
14141;SDS011;7151;52.246;4.820;2022-11-13T09:31:45;5.00;;;3.70;;
14141;SDS011;7151;52.246;4.820;2022-11-13T09:34:10;4.90;;;3.90;;
14141;SDS011;7151;52.246;4.820;2022-11-13T09:36:36;5.10;;;3.63;;
14141;SDS011;7151;52.246;4.820;2022-11-13T09:39:02;5.97;;;4.30;;
14141;SDS011;7151;52.246;4.820;2022-11-13T09:41:29;3.83;;;3.47;;
14141;SDS011;7151;52.246;4.820;2022-11-13T09:43:59;5.30;;;3.40;;
14141;SDS011;7151;52.246;4.820;2022-11-13T09:46:35;5.07;;;3.47;;
14141;SDS011;7151;52.246;4.820;2022-11-13T09:51:35;4.17;;;3.57;;
14141;SDS011;7151;52.246;4.820;2022-11-13T09:54:04;3.47;;;3.17;;
14141;SDS011;7151;52.246;4.820;2022-11-13T09:56:36;6.77;;;3.70;;
14141;SDS011;7151;52.246;4.820;2022-11-13T09:59:22;5.13;;;3.87;;
14141;SDS011;7151;52.246;4.820;2022-11-13T10:01:57;4.20;;;3.67;;
14141;SDS011;7151;52.246;4.820;2022-11-13T10:04:34;4.53;;;3.60;;
14141;SDS011;7151;52.246;4.820;2022-11-13T10:07:20;4.13;;;3.50;;
14141;SDS011;7151;52.246;4.820;2022-11-13T10:10:16;4.67;;;3.50;;
14141;SDS011;7151;52.246;4.820;2022-11-13T10:12:58;4.30;;;3.37;;
14141;SDS011;7151;52.246;4.820;2022-11-13T10:15:24;6.93;;;3.50;;
14141;SDS011;7151;52.246;4.820;2022-11-13T10:20:43;4.20;;;3.50;;
14141;SDS011;7151;52.246;4.820;2022-11-13T10:23:19;4.33;;;3.03;;
14141;SDS011;7151;52.246;4.820;2022-11-13T10:25:48;6.03;;;3.10;;
14141;SDS011;7151;52.246;4.820;2022-11-13T10:28:17;4.27;;;2.90;;
14141;SDS011;7151;52.246;4.820;2022-11-13T10:30:44;4.10;;;3.47;;
14141;SDS011;7151;52.246;4.820;2022-11-13T10:33:13;4.27;;;2.83;;
14141;SDS011;7151;52.246;4.820;2022-11-13T10:38:31;3.63;;;3.30;;
14141;SDS011;7151;52.246;4.820;2022-11-13T10:41:14;4.03;;;2.90;;
14141;SDS011;7151;52.246;4.820;2022-11-13T10:46:44;5.00;;;3.20;;
14141;SDS011;7151;52.246;4.820;2022-11-13T10:49:11;4.37;;;2.97;;
14141;SDS011;7151;52.246;4.820;2022-11-13T10:51:37;4.63;;;2.90;;
14141;SDS011;7151;52.246;4.820;2022-11-13T10:54:15;5.43;;;2.80;;
14141;SDS011;7151;52.246;4.820;2022-11-13T10:56:58;3.97;;;3.13;;
14141;SDS011;7151;52.246;4.820;2022-11-13T10:59:39;2.83;;;2.53;;
14141;SDS011;7151;52.246;4.820;2022-11-13T11:02:23;3.93;;;2.53;;
14141;SDS011;7151;52.246;4.820;2022-11-13T11:05:00;5.00;;;2.57;;
14141;SDS011;7151;52.246;4.820;2022-11-13T11:07:29;4.17;;;2.53;;
14141;SDS011;7151;52.246;4.820;2022-11-13T11:10:06;4.03;;;2.50;;
14141;SDS011;7151;52.246;4.820;2022-11-13T11:12:54;4.00;;;2.67;;
14141;SDS011;7151;52.246;4.820;2022-11-13T11:15:22;2.97;;;2.27;;
14141;SDS011;7151;52.246;4.820;2022-11-13T11:17:50;2.53;;;2.20;;
14141;SDS011;7151;52.246;4.820;2022-11-13T11:20:27;4.97;;;3.00;;
14141;SDS011;7151;52.246;4.820;2022-11-13T11:23:24;2.70;;;2.23;;
14141;SDS011;7151;52.246;4.820;2022-11-13T11:26:13;2.40;;;2.20;;
14141;SDS011;7151;52.246;4.820;2022-11-13T11:33:54;3.20;;;2.27;;
14141;SDS011;7151;52.246;4.820;2022-11-13T11:36:31;4.57;;;2.30;;
14141;SDS011;7151;52.246;4.820;2022-11-13T11:39:07;3.60;;;2.80;;
14141;SDS011;7151;52.246;4.820;2022-11-13T11:41:42;4.27;;;2.77;;
14141;SDS011;7151;52.246;4.820;2022-11-13T11:44:34;3.67;;;2.97;;
14141;SDS011;7151;52.246;4.820;2022-11-13T11:47:14;4.33;;;3.03;;
14141;SDS011;7151;52.246;4.820;2022-11-13T11:49:42;4.27;;;2.70;;
14141;SDS011;7151;52.246;4.820;2022-11-13T11:54:45;4.20;;;2.60;;
14141;SDS011;7151;52.246;4.820;2022-11-13T12:00:17;3.97;;;3.20;;
14141;SDS011;7151;52.246;4.820;2022-11-13T12:05:22;4.80;;;2.90;;
14141;SDS011;7151;52.246;4.820;2022-11-13T12:13:33;5.43;;;3.30;;
14141;SDS011;7151;52.246;4.820;2022-11-13T12:16:17;4.53;;;3.23;;
14141;SDS011;7151;52.246;4.820;2022-11-13T12:34:59;4.43;;;3.20;;
14141;SDS011;7151;52.246;4.820;2022-11-13T12:40:24;4.50;;;3.53;;
14141;SDS011;7151;52.246;4.820;2022-11-13T12:45:59;10.83;;;3.20;;
14141;SDS011;7151;52.246;4.820;2022-11-13T12:48:38;3.57;;;3.00;;
14141;SDS011;7151;52.246;4.820;2022-11-13T12:51:09;5.93;;;3.77;;
14141;SDS011;7151;52.246;4.820;2022-11-13T12:58:59;3.60;;;2.80;;
14141;SDS011;7151;52.246;4.820;2022-11-13T13:01:27;3.67;;;2.73;;
14141;SDS011;7151;52.246;4.820;2022-11-13T13:09:32;4.27;;;2.57;;
14141;SDS011;7151;52.246;4.820;2022-11-13T13:12:47;3.23;;;2.40;;
14141;SDS011;7151;52.246;4.820;2022-11-13T13:17:35;3.93;;;2.40;;
14141;SDS011;7151;52.246;4.820;2022-11-13T13:22:35;6.00;;;2.90;;
14141;SDS011;7151;52.246;4.820;2022-11-13T13:25:03;5.23;;;2.60;;
14141;SDS011;7151;52.246;4.820;2022-11-13T13:27:39;3.00;;;2.60;;
14141;SDS011;7151;52.246;4.820;2022-11-13T13:30:20;4.27;;;2.53;;
14141;SDS011;7151;52.246;4.820;2022-11-13T13:32:52;3.03;;;2.30;;
14141;SDS011;7151;52.246;4.820;2022-11-13T13:35:45;4.10;;;2.90;;
14141;SDS011;7151;52.246;4.820;2022-11-13T13:38:31;7.67;;;2.50;;
14141;SDS011;7151;52.246;4.820;2022-11-13T13:46:30;5.00;;;2.57;;
14141;SDS011;7151;52.246;4.820;2022-11-13T13:49:01;4.73;;;3.00;;
14141;SDS011;7151;52.246;4.820;2022-11-13T13:51:42;2.97;;;2.50;;
14141;SDS011;7151;52.246;4.820;2022-11-13T13:54:15;3.57;;;2.50;;
14141;SDS011;7151;52.246;4.820;2022-11-13T13:56:47;3.50;;;2.57;;
14141;SDS011;7151;52.246;4.820;2022-11-13T13:59:20;4.07;;;2.60;;
14141;SDS011;7151;52.246;4.820;2022-11-13T14:01:55;4.00;;;2.93;;
14141;SDS011;7151;52.246;4.820;2022-11-13T14:04:23;5.33;;;2.63;;
14141;SDS011;7151;52.246;4.820;2022-11-13T14:06:52;3.50;;;2.70;;
14141;SDS011;7151;52.246;4.820;2022-11-13T14:09:24;2.63;;;2.27;;
14141;SDS011;7151;52.246;4.820;2022-11-13T14:12:39;2.73;;;2.43;;
14141;SDS011;7151;52.246;4.820;2022-11-13T14:14:45;2.80;;;2.57;;
14141;SDS011;7151;52.246;4.820;2022-11-13T14:17:11;3.23;;;2.50;;
14141;SDS011;7151;52.246;4.820;2022-11-13T14:19:49;4.13;;;2.43;;
14141;SDS011;7151;52.246;4.820;2022-11-13T14:22:18;3.57;;;2.87;;
14141;SDS011;7151;52.246;4.820;2022-11-13T14:24:48;3.67;;;2.43;;
14141;SDS011;7151;52.246;4.820;2022-11-13T14:27:18;4.17;;;2.70;;
14141;SDS011;7151;52.246;4.820;2022-11-13T14:29:47;3.27;;;2.87;;
14141;SDS011;7151;52.246;4.820;2022-11-13T14:32:17;4.33;;;2.77;;
14141;SDS011;7151;52.246;4.820;2022-11-13T14:34:46;3.77;;;2.80;;
14141;SDS011;7151;52.246;4.820;2022-11-13T14:37:19;3.57;;;2.60;;
14141;SDS011;7151;52.246;4.820;2022-11-13T14:39:53;3.90;;;2.97;;
14141;SDS011;7151;52.246;4.820;2022-11-13T14:42:24;4.50;;;3.13;;
14141;SDS011;7151;52.246;4.820;2022-11-13T14:44:52;4.20;;;2.37;;
14141;SDS011;7151;52.246;4.820;2022-11-13T14:47:26;5.30;;;3.13;;
14141;SDS011;7151;52.246;4.820;2022-11-13T14:49:53;5.77;;;2.93;;
14141;SDS011;7151;52.246;4.820;2022-11-13T14:52:20;3.33;;;2.40;;
14141;SDS011;7151;52.246;4.820;2022-11-13T14:54:46;4.50;;;2.87;;
14141;SDS011;7151;52.246;4.820;2022-11-13T14:57:13;3.83;;;2.67;;
14141;SDS011;7151;52.246;4.820;2022-11-13T14:59:39;3.80;;;2.70;;
14141;SDS011;7151;52.246;4.820;2022-11-13T15:02:11;3.07;;;2.77;;
14141;SDS011;7151;52.246;4.820;2022-11-13T15:04:37;8.03;;;2.93;;
14141;SDS011;7151;52.246;4.820;2022-11-13T15:07:17;4.83;;;2.93;;
14141;SDS011;7151;52.246;4.820;2022-11-13T15:09:53;4.30;;;2.50;;
14141;SDS011;7151;52.246;4.820;2022-11-13T15:12:19;3.00;;;2.70;;
14141;SDS011;7151;52.246;4.820;2022-11-13T15:14:45;4.60;;;3.10;;
14141;SDS011;7151;52.246;4.820;2022-11-13T15:17:15;5.37;;;3.07;;
14141;SDS011;7151;52.246;4.820;2022-11-13T15:19:43;4.80;;;2.97;;
14141;SDS011;7151;52.246;4.820;2022-11-13T15:22:12;3.83;;;2.90;;
14141;SDS011;7151;52.246;4.820;2022-11-13T15:24:38;2.90;;;2.60;;
14141;SDS011;7151;52.246;4.820;2022-11-13T15:27:04;3.27;;;2.57;;
14141;SDS011;7151;52.246;4.820;2022-11-13T15:29:30;3.90;;;3.00;;
14141;SDS011;7151;52.246;4.820;2022-11-13T15:31:56;4.43;;;2.87;;
14141;SDS011;7151;52.246;4.820;2022-11-13T15:34:22;6.50;;;3.27;;
14141;SDS011;7151;52.246;4.820;2022-11-13T15:36:48;4.07;;;3.20;;
14141;SDS011;7151;52.246;4.820;2022-11-13T15:39:13;3.53;;;2.70;;
14141;SDS011;7151;52.246;4.820;2022-11-13T15:41:39;3.67;;;2.87;;
14141;SDS011;7151;52.246;4.820;2022-11-13T15:44:14;3.63;;;2.90;;
14141;SDS011;7151;52.246;4.820;2022-11-13T15:46:40;6.17;;;3.30;;
14141;SDS011;7151;52.246;4.820;2022-11-13T15:49:05;4.03;;;2.57;;
14141;SDS011;7151;52.246;4.820;2022-11-13T15:51:41;3.83;;;3.30;;
14141;SDS011;7151;52.246;4.820;2022-11-13T15:56:50;4.83;;;3.27;;
14141;SDS011;7151;52.246;4.820;2022-11-13T15:59:16;5.63;;;3.50;;
14141;SDS011;7151;52.246;4.820;2022-11-13T16:01:41;3.80;;;2.50;;
14141;SDS011;7151;52.246;4.820;2022-11-13T16:04:07;4.03;;;3.10;;
14141;SDS011;7151;52.246;4.820;2022-11-13T16:06:35;5.27;;;3.60;;
14141;SDS011;7151;52.246;4.820;2022-11-13T16:09:02;3.33;;;2.90;;
14141;SDS011;7151;52.246;4.820;2022-11-13T16:11:29;5.50;;;3.50;;
14141;SDS011;7151;52.246;4.820;2022-11-13T16:13:56;4.97;;;3.80;;
14141;SDS011;7151;52.246;4.820;2022-11-13T16:16:22;5.73;;;3.27;;
14141;SDS011;7151;52.246;4.820;2022-11-13T16:18:54;4.57;;;3.43;;
14141;SDS011;7151;52.246;4.820;2022-11-13T16:21:20;5.10;;;3.43;;
14141;SDS011;7151;52.246;4.820;2022-11-13T16:23:46;5.30;;;4.10;;
14141;SDS011;7151;52.246;4.820;2022-11-13T16:26:13;4.77;;;3.90;;
14141;SDS011;7151;52.246;4.820;2022-11-13T16:28:42;6.60;;;4.47;;
14141;SDS011;7151;52.246;4.820;2022-11-13T16:31:09;7.03;;;4.40;;